createdAt,value
2019-02-05T00:00:53.157Z,0
2019-02-05T00:02:03.141Z,0
2019-02-05T00:03:13.097Z,0
2019-02-05T00:04:23.057Z,0
2019-02-05T00:05:32.534Z,0
2019-02-05T00:06:42.228Z,0
2019-02-05T00:07:51.942Z,0
2019-02-05T00:09:01.390Z,0
2019-02-05T00:10:10.851Z,0
2019-02-05T00:11:20.305Z,0
2019-02-05T00:12:29.998Z,0
2019-02-05T00:13:39.455Z,0
2019-02-05T00:14:49.164Z,0
2019-02-05T00:15:58.880Z,0
2019-02-05T00:17:08.579Z,0
2019-02-05T00:18:18.264Z,0
2019-02-05T00:19:27.857Z,0
2019-02-05T00:20:37.552Z,0
2019-02-05T00:21:47.256Z,0
2019-02-05T00:22:56.953Z,0
2019-02-05T00:24:06.650Z,0
2019-02-05T00:25:16.089Z,0
2019-02-05T00:26:25.549Z,0
2019-02-05T00:27:35.012Z,0
2019-02-05T00:28:44.463Z,0
2019-02-05T00:29:54.162Z,0
2019-02-05T00:31:03.942Z,0
2019-02-05T00:32:14.014Z,0
2019-02-05T00:33:23.979Z,0
2019-02-05T00:34:33.918Z,0
2019-02-05T00:35:43.609Z,0
2019-02-05T00:36:53.298Z,0
2019-02-05T00:38:03.012Z,0
2019-02-05T00:39:12.959Z,0
2019-02-05T00:40:22.672Z,0
2019-02-05T00:41:32.618Z,0
2019-02-05T00:42:42.083Z,0
2019-02-05T00:43:51.789Z,0
2019-02-05T00:45:01.496Z,0
2019-02-05T00:46:11.443Z,0
2019-02-05T00:47:21.159Z,0
2019-02-05T00:48:30.473Z,0
2019-02-05T00:49:40.420Z,0
2019-02-05T00:50:50.148Z,0
2019-02-05T00:51:59.858Z,0
2019-02-05T00:53:09.541Z,0
2019-02-05T00:54:19.258Z,0
2019-02-05T00:55:29.263Z,0
2019-02-05T00:56:39.506Z,0
2019-02-05T00:57:49.592Z,0
2019-02-05T00:59:00.193Z,0
2019-02-05T01:00:10.645Z,0
2019-02-05T01:01:22.802Z,0
2019-02-05T01:02:33.012Z,0
2019-02-05T01:03:43.247Z,0
2019-02-05T01:04:53.224Z,0
2019-02-05T01:06:03.112Z,0
2019-02-05T01:07:12.716Z,0
2019-02-05T01:08:22.418Z,0
2019-02-05T01:09:32.126Z,0
2019-02-05T01:10:41.849Z,0
2019-02-05T01:11:51.544Z,0
2019-02-05T01:13:01.006Z,0
2019-02-05T01:14:10.961Z,0
2019-02-05T01:15:20.661Z,0
2019-02-05T01:16:30.761Z,0
2019-02-05T01:17:39.966Z,0
2019-02-05T01:18:49.680Z,0
2019-02-05T01:19:59.145Z,0
2019-02-05T01:21:08.838Z,0
2019-02-05T01:22:18.547Z,0
2019-02-05T01:23:28.510Z,0
2019-02-05T01:24:38.215Z,0
2019-02-05T01:25:48.165Z,0
2019-02-05T01:26:58.130Z,0
2019-02-05T01:28:07.346Z,0
2019-02-05T01:29:17.287Z,0
2019-02-05T01:30:26.991Z,0
2019-02-05T01:31:36.950Z,0
2019-02-05T01:32:46.661Z,0
2019-02-05T01:33:56.359Z,0
2019-02-05T01:35:06.080Z,0
2019-02-05T01:36:16.038Z,0
2019-02-05T01:37:25.512Z,0
2019-02-05T01:38:34.961Z,0
2019-02-05T01:39:44.660Z,0
2019-02-05T01:40:54.115Z,0
2019-02-05T01:42:03.582Z,0
2019-02-05T01:43:16.712Z,0
2019-02-05T01:44:26.686Z,0
2019-02-05T01:45:36.639Z,0
2019-02-05T01:46:45.847Z,0
2019-02-05T01:47:55.810Z,0
2019-02-05T01:49:05.518Z,0
2019-02-05T01:50:15.218Z,0
2019-02-05T01:51:24.919Z,0
2019-02-05T01:52:34.372Z,0
2019-02-05T01:53:44.061Z,0
2019-02-05T01:54:53.753Z,0
2019-02-05T01:56:03.705Z,0
2019-02-05T01:57:13.673Z,0
2019-02-05T01:58:22.882Z,0
2019-02-05T01:59:32.609Z,0
2019-02-05T02:00:42.321Z,0
2019-02-05T02:01:52.271Z,0
2019-02-05T02:03:01.751Z,0
2019-02-05T02:04:11.251Z,0
2019-02-05T02:05:20.445Z,0
2019-02-05T02:06:30.160Z,0
2019-02-05T02:07:39.858Z,0
2019-02-05T02:08:49.579Z,0
2019-02-05T02:09:59.521Z,0
2019-02-05T02:11:09.500Z,0
2019-02-05T02:12:19.233Z,0
2019-02-05T02:13:29.295Z,0
2019-02-05T02:14:39.251Z,0
2019-02-05T02:15:49.232Z,0
2019-02-05T02:16:59.083Z,0
2019-02-05T02:18:09.162Z,0
2019-02-05T02:19:19.586Z,0
2019-02-05T02:20:30.554Z,0
2019-02-05T02:21:41.475Z,0
2019-02-05T02:22:51.958Z,0
2019-02-05T02:24:02.310Z,0
2019-02-05T02:25:12.802Z,0
2019-02-05T02:26:22.695Z,0
2019-02-05T02:27:32.882Z,0
2019-02-05T02:30:18.347Z,0
2019-02-05T02:31:28.330Z,0
2019-02-05T02:32:38.301Z,0
2019-02-05T02:33:47.774Z,0
2019-02-05T02:34:57.487Z,0
2019-02-05T02:36:07.194Z,0
2019-02-05T02:37:16.649Z,0
2019-02-05T02:38:26.371Z,0
2019-02-05T02:39:36.348Z,0
2019-02-05T02:40:45.568Z,0
2019-02-05T02:41:55.537Z,0
2019-02-05T02:43:05.519Z,0
2019-02-05T02:44:15.315Z,0
2019-02-05T02:45:25.038Z,0
2019-02-05T02:46:35.003Z,0
2019-02-05T02:47:44.986Z,0
2019-02-05T02:48:54.699Z,0
2019-02-05T02:50:04.461Z,0
2019-02-05T02:51:14.443Z,0
2019-02-05T02:52:24.138Z,0
2019-02-05T02:53:34.226Z,0
2019-02-05T02:54:43.752Z,0
2019-02-05T02:55:53.905Z,0
2019-02-05T02:57:14.905Z,0
2019-02-05T02:58:25.511Z,0
2019-02-05T02:59:36.359Z,0
2019-02-05T03:00:46.913Z,0
2019-02-05T03:01:57.675Z,0
2019-02-05T03:03:08.277Z,0
2019-02-05T03:04:18.306Z,0
2019-02-05T03:05:28.779Z,0
2019-02-05T03:06:38.786Z,0
2019-02-05T03:07:49.057Z,0
2019-02-05T03:08:59.024Z,0
2019-02-05T03:10:09.208Z,0
2019-02-05T03:11:19.227Z,0
2019-02-05T03:12:29.216Z,0
2019-02-05T03:13:39.182Z,0
2019-02-05T03:14:48.663Z,0
2019-02-05T03:15:58.405Z,0
2019-02-05T03:17:08.174Z,0
2019-02-05T03:18:18.025Z,0
2019-02-05T03:19:27.793Z,0
2019-02-05T03:20:37.749Z,0
2019-02-05T03:21:47.528Z,0
2019-02-05T03:22:57.563Z,0
2019-02-05T03:24:07.454Z,0
2019-02-05T03:25:17.226Z,0
2019-02-05T03:26:26.960Z,0
2019-02-05T03:27:37.067Z,0
2019-02-05T03:28:46.564Z,0
2019-02-05T03:29:56.148Z,0
2019-02-05T03:31:06.225Z,0
2019-02-05T03:32:15.986Z,0
2019-02-05T03:33:26.297Z,0
2019-02-05T03:34:36.051Z,0
2019-02-05T03:35:46.014Z,0
2019-02-05T03:36:55.513Z,0
2019-02-05T03:38:05.453Z,0
2019-02-05T03:39:15.210Z,0
2019-02-05T03:40:24.951Z,0
2019-02-05T03:41:34.691Z,0
2019-02-05T03:42:44.656Z,0
2019-02-05T03:43:54.397Z,0
2019-02-05T03:45:04.370Z,0
2019-02-05T03:46:14.143Z,0
2019-02-05T03:47:23.876Z,0
2019-02-05T03:48:33.370Z,0
2019-02-05T03:49:43.373Z,0
2019-02-05T03:50:53.377Z,0
2019-02-05T03:52:03.112Z,0
2019-02-05T03:53:13.108Z,0
2019-02-05T03:54:22.843Z,0
2019-02-05T03:55:32.369Z,0
2019-02-05T03:56:41.852Z,0
2019-02-05T03:57:51.578Z,0
2019-02-05T03:59:01.320Z,0
2019-02-05T04:00:11.062Z,0
2019-02-05T04:01:20.796Z,0
2019-02-05T04:02:30.783Z,0
2019-02-05T04:03:40.264Z,0
2019-02-05T04:04:49.528Z,0
2019-02-05T04:05:59.524Z,0
2019-02-05T04:07:09.508Z,0
2019-02-05T04:08:18.989Z,0
2019-02-05T04:09:28.730Z,0
2019-02-05T04:10:38.476Z,0
2019-02-05T04:11:48.467Z,0
2019-02-05T04:12:58.423Z,0
2019-02-05T04:14:08.201Z,0
2019-02-05T04:15:18.196Z,0
2019-02-05T04:16:27.929Z,0
2019-02-05T04:17:37.929Z,0
2019-02-05T04:18:47.409Z,0
2019-02-05T04:19:57.174Z,0
2019-02-05T04:21:06.898Z,0
2019-02-05T04:22:16.388Z,0
2019-02-05T04:23:26.155Z,0
2019-02-05T04:24:35.906Z,0
2019-02-05T04:25:45.665Z,0
2019-02-05T04:26:55.387Z,0
2019-02-05T04:28:05.128Z,0
2019-02-05T04:29:14.914Z,0
2019-02-05T04:30:25.029Z,0
2019-02-05T04:31:34.750Z,0
2019-02-05T04:32:44.816Z,0
2019-02-05T04:33:54.547Z,0
2019-02-05T04:35:04.540Z,0
2019-02-05T04:36:14.007Z,0
2019-02-05T04:37:23.762Z,0
2019-02-05T04:38:33.266Z,0
2019-02-05T04:39:42.775Z,0
2019-02-05T04:40:52.637Z,0
2019-02-05T04:42:02.630Z,0
2019-02-05T04:43:12.701Z,0
2019-02-05T04:44:22.703Z,0
2019-02-05T04:45:43.862Z,0
2019-02-05T04:46:53.818Z,0
2019-02-05T04:48:04.496Z,0
2019-02-05T04:49:15.495Z,0
2019-02-05T04:50:26.253Z,0
2019-02-05T04:51:36.705Z,0
2019-02-05T04:52:47.739Z,0
2019-02-05T04:53:57.579Z,0
2019-02-05T04:55:07.858Z,0
2019-02-05T04:56:18.041Z,0
2019-02-05T04:57:28.303Z,0
2019-02-05T04:58:38.269Z,0
2019-02-05T04:59:48.010Z,0
2019-02-05T05:00:57.745Z,0
2019-02-05T05:02:07.507Z,0
2019-02-05T05:03:17.321Z,0
2019-02-05T05:04:27.194Z,0
2019-02-05T05:05:37.173Z,0
2019-02-05T05:06:46.654Z,0
2019-02-05T05:07:56.395Z,0
2019-02-05T05:09:06.128Z,0
2019-02-05T05:10:15.601Z,0
2019-02-05T05:11:25.386Z,0
2019-02-05T05:12:35.387Z,0
2019-02-05T05:13:44.888Z,0
2019-02-05T05:14:54.642Z,0
2019-02-05T05:16:04.113Z,0
2019-02-05T05:17:13.348Z,0
2019-02-05T05:18:25.216Z,0
2019-02-05T05:19:34.943Z,0
2019-02-05T05:20:44.291Z,0
2019-02-05T05:21:53.789Z,0
2019-02-05T05:23:03.276Z,0
2019-02-05T05:24:13.305Z,0
2019-02-05T05:25:23.028Z,0
2019-02-05T05:26:32.772Z,0
2019-02-05T05:27:42.677Z,0
2019-02-05T05:28:52.420Z,0
2019-02-05T05:30:02.478Z,0
2019-02-05T05:31:12.594Z,0
2019-02-05T05:32:22.588Z,0
2019-02-05T05:33:32.553Z,0
2019-02-05T05:34:42.288Z,0
2019-02-05T05:35:53.965Z,0
2019-02-05T05:37:03.981Z,0
2019-02-05T05:38:13.721Z,0
2019-02-05T05:39:23.476Z,0
2019-02-05T05:40:33.508Z,0
2019-02-05T05:41:43.237Z,0
2019-02-05T05:42:52.735Z,0
2019-02-05T05:44:02.534Z,0
2019-02-05T05:45:12.320Z,0
2019-02-05T05:46:22.097Z,0
2019-02-05T05:47:31.604Z,0
2019-02-05T05:48:41.595Z,0
2019-02-05T05:49:51.342Z,0
2019-02-05T05:51:01.079Z,0
2019-02-05T05:52:10.584Z,0
2019-02-05T05:53:20.579Z,0
2019-02-05T05:54:30.704Z,0
2019-02-05T05:55:40.212Z,0
2019-02-05T05:56:50.207Z,0
2019-02-05T05:58:00.205Z,0
2019-02-05T05:59:10.198Z,0
2019-02-05T06:00:20.178Z,0
2019-02-05T06:01:29.909Z,0
2019-02-05T06:02:42.091Z,0
2019-02-05T06:03:51.829Z,0
2019-02-05T06:05:01.565Z,0
2019-02-05T06:06:11.348Z,0
2019-02-05T06:07:20.836Z,0
2019-02-05T06:08:30.943Z,0
2019-02-05T06:09:41.017Z,0
2019-02-05T06:10:51.001Z,0
2019-02-05T06:12:00.722Z,0
2019-02-05T06:13:10.448Z,0
2019-02-05T06:14:20.178Z,0
2019-02-05T06:15:30.194Z,0
2019-02-05T06:16:39.931Z,0
2019-02-05T06:17:49.980Z,0
2019-02-05T06:18:59.745Z,0
2019-02-05T06:20:09.653Z,0
2019-02-05T06:21:21.021Z,0
2019-02-05T06:22:30.262Z,0
2019-02-05T06:23:40.020Z,0
2019-02-05T06:24:49.774Z,0
2019-02-05T06:25:59.787Z,0
2019-02-05T06:27:09.790Z,0
2019-02-05T06:28:19.523Z,0
2019-02-05T06:29:29.256Z,0
2019-02-05T06:30:39.242Z,0
2019-02-05T06:31:49.240Z,0
2019-02-05T06:32:59.231Z,0
2019-02-05T06:34:09.246Z,0
2019-02-05T06:35:18.984Z,0
2019-02-05T06:36:28.991Z,0
2019-02-05T06:37:38.963Z,0
2019-02-05T06:38:52.394Z,0
2019-02-05T06:40:03.291Z,0
2019-02-05T06:41:13.888Z,0
2019-02-05T06:42:24.831Z,0
2019-02-05T06:43:35.250Z,0
2019-02-05T06:44:45.882Z,0
2019-02-05T06:45:56.217Z,0
2019-02-05T06:47:06.425Z,0
2019-02-05T06:48:16.333Z,0
2019-02-05T06:49:26.104Z,0
2019-02-05T06:50:35.861Z,0
2019-02-05T06:51:46.098Z,0
2019-02-05T06:52:56.031Z,0
2019-02-05T06:54:05.763Z,0
2019-02-05T06:55:15.743Z,0
2019-02-05T06:56:25.500Z,0
2019-02-05T06:57:35.250Z,0
2019-02-05T06:58:55.685Z,0
2019-02-05T07:00:05.479Z,0
2019-02-05T07:01:15.533Z,5
2019-02-05T07:02:25.549Z,5
2019-02-05T07:03:35.544Z,5
2019-02-05T07:04:45.270Z,5
2019-02-05T07:05:55.025Z,5
2019-02-05T07:07:04.530Z,5
2019-02-05T07:08:14.166Z,5
2019-02-05T07:09:23.665Z,5
2019-02-05T07:10:33.461Z,5
2019-02-05T07:11:42.784Z,5
2019-02-05T07:12:52.544Z,5
2019-02-05T07:14:05.452Z,5
2019-02-05T07:15:15.270Z,10
2019-02-05T07:16:24.549Z,5
2019-02-05T07:17:34.579Z,10
2019-02-05T07:18:44.378Z,10
2019-02-05T07:19:54.395Z,10
2019-02-05T07:21:04.427Z,10
2019-02-05T07:22:14.243Z,10
2019-02-05T07:23:24.266Z,10
2019-02-05T07:24:34.309Z,10
2019-02-05T07:25:44.069Z,15
2019-02-05T07:26:53.859Z,15
2019-02-05T07:28:03.619Z,10
2019-02-05T07:29:13.169Z,15
2019-02-05T07:30:23.211Z,15
2019-02-05T07:31:32.970Z,15
2019-02-05T07:32:42.772Z,15
2019-02-05T07:33:52.829Z,20
2019-02-05T07:35:02.971Z,25
2019-02-05T07:36:12.565Z,20
2019-02-05T07:37:22.395Z,25
2019-02-05T07:38:32.283Z,25
2019-02-05T07:39:42.140Z,25
2019-02-05T07:40:52.214Z,20
2019-02-05T07:42:02.053Z,20
2019-02-05T07:43:11.907Z,20
2019-02-05T07:44:22.067Z,25
2019-02-05T07:45:31.581Z,20
2019-02-05T07:46:41.719Z,20
2019-02-05T07:47:51.478Z,20
2019-02-05T07:49:01.278Z,20
2019-02-05T07:50:11.322Z,15
2019-02-05T07:51:21.486Z,15
2019-02-05T07:52:31.286Z,20
2019-02-05T07:53:42.951Z,25
2019-02-05T07:54:52.503Z,30
2019-02-05T07:56:02.027Z,35
2019-02-05T07:57:12.064Z,35
2019-02-05T07:58:22.177Z,30
2019-02-05T07:59:32.194Z,30
2019-02-05T08:00:41.958Z,30
2019-02-05T08:01:52.040Z,35
2019-02-05T08:03:01.846Z,35
2019-02-05T08:04:11.864Z,35
2019-02-05T08:05:21.665Z,35
2019-02-05T08:06:31.432Z,35
2019-02-05T08:07:41.466Z,35
2019-02-05T08:08:51.645Z,35
2019-02-05T08:10:01.434Z,35
2019-02-05T08:11:10.987Z,40
2019-02-05T08:12:20.295Z,40
2019-02-05T08:13:30.148Z,45
2019-02-05T08:14:39.721Z,45
2019-02-05T08:15:49.749Z,40
2019-02-05T08:16:59.769Z,45
2019-02-05T08:18:09.827Z,45
2019-02-05T08:19:19.655Z,45
2019-02-05T08:20:29.728Z,45
2019-02-05T08:21:39.001Z,45
2019-02-05T08:22:48.964Z,45
2019-02-05T08:23:58.507Z,50
2019-02-05T08:25:08.546Z,45
2019-02-05T08:26:18.072Z,50
2019-02-05T08:27:27.343Z,45
2019-02-05T08:28:47.895Z,50
2019-02-05T08:29:57.467Z,55
2019-02-05T08:31:07.276Z,55
2019-02-05T08:32:17.059Z,50
2019-02-05T08:33:26.853Z,55
2019-02-05T08:34:36.668Z,50
2019-02-05T08:35:46.468Z,55
2019-02-05T08:36:56.274Z,55
2019-02-05T08:38:06.395Z,65
2019-02-05T08:39:17.930Z,60
2019-02-05T08:40:28.341Z,60
2019-02-05T08:41:38.533Z,60
2019-02-05T08:42:48.603Z,65
2019-02-05T08:43:58.624Z,75
2019-02-05T08:45:08.175Z,70
2019-02-05T08:46:18.251Z,70
2019-02-05T08:47:27.881Z,70
2019-02-05T08:48:36.924Z,65
2019-02-05T08:49:46.243Z,65
2019-02-05T08:50:56.303Z,70
2019-02-05T08:52:06.466Z,70
2019-02-05T08:53:16.002Z,75
2019-02-05T08:54:25.812Z,70
2019-02-05T08:55:38.044Z,70
2019-02-05T08:56:48.195Z,80
2019-02-05T08:57:58.450Z,75
2019-02-05T08:59:08.976Z,75
2019-02-05T09:00:19.354Z,80
2019-02-05T09:01:29.806Z,80
2019-02-05T09:02:39.944Z,70
2019-02-05T09:03:50.836Z,70
2019-02-05T09:05:01.076Z,75
2019-02-05T09:06:11.570Z,70
2019-02-05T09:07:21.968Z,70
2019-02-05T09:08:32.260Z,70
2019-02-05T09:09:42.569Z,75
2019-02-05T09:10:53.209Z,75
2019-02-05T09:12:03.038Z,85
2019-02-05T09:13:13.207Z,75
2019-02-05T09:14:23.217Z,85
2019-02-05T09:15:38.863Z,100
2019-02-05T09:16:48.675Z,85
2019-02-05T09:17:57.971Z,120
2019-02-05T09:19:07.524Z,100
2019-02-05T09:20:17.352Z,100
2019-02-05T09:21:26.634Z,105
2019-02-05T09:22:36.398Z,125
2019-02-05T09:23:46.432Z,110
2019-02-05T09:24:56.490Z,120
2019-02-05T09:26:06.589Z,120
2019-02-05T09:27:15.886Z,125
2019-02-05T09:28:25.752Z,115
2019-02-05T09:29:42.469Z,105
2019-02-05T09:30:52.398Z,100
2019-02-05T09:32:01.689Z,90
2019-02-05T09:33:11.723Z,90
2019-02-05T09:34:21.744Z,100
2019-02-05T09:35:31.801Z,130
2019-02-05T09:36:41.618Z,115
2019-02-05T09:37:51.552Z,100
2019-02-05T09:39:01.335Z,125
2019-02-05T09:40:11.118Z,140
2019-02-05T09:41:20.666Z,150
2019-02-05T09:42:30.233Z,140
2019-02-05T09:43:40.060Z,120
2019-02-05T09:44:49.856Z,120
2019-02-05T09:45:59.146Z,105
2019-02-05T09:47:09.156Z,95
2019-02-05T09:48:18.964Z,95
2019-02-05T09:49:28.525Z,115
2019-02-05T09:50:51.693Z,105
2019-02-05T09:52:01.786Z,100
2019-02-05T09:53:11.458Z,95
2019-02-05T09:56:11.593Z,145
2019-02-05T09:57:21.422Z,165
2019-02-05T09:58:31.021Z,150
2019-02-05T09:59:52.137Z,115
2019-02-05T10:01:04.410Z,105
2019-02-05T10:02:14.243Z,115
2019-02-05T10:03:24.310Z,95
2019-02-05T10:04:34.194Z,95
2019-02-05T10:05:43.850Z,95
2019-02-05T10:06:55.026Z,100
2019-02-05T10:08:05.093Z,115
2019-02-05T10:09:15.154Z,95
2019-02-05T10:10:25.250Z,100
2019-02-05T10:11:35.046Z,100
2019-02-05T10:12:46.818Z,105
2019-02-05T10:13:56.804Z,95
2019-02-05T10:15:06.846Z,90
2019-02-05T10:16:16.368Z,85
2019-02-05T10:17:26.154Z,75
2019-02-05T10:18:35.904Z,80
2019-02-05T10:19:45.689Z,95
2019-02-05T10:20:55.732Z,90
2019-02-05T10:22:05.259Z,90
2019-02-05T10:23:15.086Z,90
2019-02-05T10:24:25.164Z,90
2019-02-05T10:25:34.762Z,85
2019-02-05T10:26:44.563Z,80
2019-02-05T10:27:54.216Z,70
2019-02-05T10:29:04.287Z,70
2019-02-05T10:30:14.367Z,90
2019-02-05T10:31:24.193Z,95
2019-02-05T10:32:34.009Z,105
2019-02-05T10:33:54.633Z,105
2019-02-05T10:35:05.021Z,75
2019-02-05T10:36:14.838Z,80
2019-02-05T10:37:24.936Z,70
2019-02-05T10:38:34.472Z,70
2019-02-05T10:39:44.283Z,80
2019-02-05T10:40:54.379Z,75
2019-02-05T10:42:03.923Z,75
2019-02-05T10:43:14.166Z,85
2019-02-05T10:44:24.039Z,75
2019-02-05T10:45:33.989Z,75
2019-02-05T10:46:43.602Z,60
2019-02-05T10:47:53.834Z,60
2019-02-05T10:49:06.103Z,65
2019-02-05T10:50:17.025Z,70
2019-02-05T10:51:27.828Z,80
2019-02-05T10:52:38.594Z,80
2019-02-05T10:53:49.312Z,95
2019-02-05T10:54:59.743Z,100
2019-02-05T10:56:09.905Z,95
2019-02-05T10:57:20.142Z,95
2019-02-05T10:58:30.003Z,105
2019-02-05T10:59:40.332Z,90
2019-02-05T11:00:50.351Z,95
2019-02-05T11:02:00.443Z,110
2019-02-05T11:03:10.501Z,100
2019-02-05T11:04:20.273Z,110
2019-02-05T11:05:30.345Z,155
2019-02-05T11:06:40.460Z,125
2019-02-05T11:07:50.517Z,180
2019-02-05T11:09:00.323Z,175
2019-02-05T11:10:09.898Z,235
2019-02-05T11:11:19.533Z,205
2019-02-05T11:12:29.569Z,260
2019-02-05T11:13:39.625Z,265
2019-02-05T11:14:48.933Z,285
2019-02-05T11:15:58.978Z,305
2019-02-05T11:17:08.797Z,305
2019-02-05T11:18:18.398Z,305
2019-02-05T11:19:28.247Z,295
2019-02-05T11:20:38.074Z,290
2019-02-05T11:21:48.179Z,315
2019-02-05T11:22:57.712Z,320
2019-02-05T11:24:07.737Z,330
2019-02-05T11:25:17.523Z,340
2019-02-05T11:26:27.331Z,345
2019-02-05T11:27:37.149Z,380
2019-02-05T11:28:46.413Z,365
2019-02-05T11:29:56.223Z,350
2019-02-05T11:31:05.798Z,355
2019-02-05T11:32:15.560Z,395
2019-02-05T11:33:25.660Z,395
2019-02-05T11:34:35.184Z,445
2019-02-05T11:35:45.014Z,405
2019-02-05T11:36:55.080Z,400
2019-02-05T11:38:05.149Z,395
2019-02-05T11:39:14.941Z,445
2019-02-05T11:40:25.031Z,460
2019-02-05T11:41:34.584Z,475
2019-02-05T11:42:44.403Z,380
2019-02-05T11:43:53.975Z,400
2019-02-05T11:45:03.494Z,230
2019-02-05T11:46:13.320Z,165
2019-02-05T11:47:23.078Z,170
2019-02-05T11:48:33.119Z,170
2019-02-05T11:49:42.657Z,135
2019-02-05T11:50:52.102Z,150
2019-02-05T11:52:02.160Z,180
2019-02-05T11:53:11.972Z,180
2019-02-05T11:54:21.728Z,200
2019-02-05T11:55:31.030Z,160
2019-02-05T11:56:41.116Z,170
2019-02-05T11:57:50.658Z,185
2019-02-05T11:59:00.487Z,200
2019-02-05T12:00:10.037Z,205
2019-02-05T12:01:20.125Z,160
2019-02-05T12:02:29.913Z,145
2019-02-05T12:03:39.724Z,150
2019-02-05T12:04:49.558Z,140
2019-02-05T12:05:59.587Z,160
2019-02-05T12:07:09.697Z,180
2019-02-05T12:08:21.188Z,200
2019-02-05T12:09:30.728Z,185
2019-02-05T12:10:40.570Z,205
2019-02-05T12:11:50.508Z,180
2019-02-05T12:13:00.497Z,195
2019-02-05T12:14:09.819Z,165
2019-02-05T12:15:19.891Z,175
2019-02-05T12:16:29.736Z,175
2019-02-05T12:17:39.551Z,160
2019-02-05T12:18:49.617Z,185
2019-02-05T12:20:02.899Z,185
2019-02-05T12:21:12.419Z,155
2019-02-05T12:22:22.587Z,165
2019-02-05T12:23:32.644Z,165
2019-02-05T12:24:42.447Z,155
2019-02-05T12:25:52.323Z,130
2019-02-05T12:27:01.971Z,125
2019-02-05T12:28:11.940Z,150
2019-02-05T12:29:21.690Z,140
2019-02-05T12:30:31.665Z,125
2019-02-05T12:31:41.672Z,110
2019-02-05T12:32:51.210Z,110
2019-02-05T12:34:00.960Z,105
2019-02-05T12:35:10.791Z,90
2019-02-05T12:36:20.305Z,95
2019-02-05T12:37:30.068Z,100
2019-02-05T12:38:39.954Z,90
2019-02-05T12:39:49.527Z,100
2019-02-05T12:40:59.286Z,100
2019-02-05T12:42:09.087Z,95
2019-02-05T12:43:18.856Z,85
2019-02-05T12:44:28.633Z,90
2019-02-05T12:45:38.650Z,90
2019-02-05T12:46:48.684Z,85
2019-02-05T12:47:58.566Z,90
2019-02-05T12:49:08.062Z,90
2019-02-05T12:50:17.834Z,90
2019-02-05T12:51:27.897Z,90
2019-02-05T12:52:37.674Z,90
2019-02-05T12:53:47.429Z,90
2019-02-05T12:54:57.178Z,90
2019-02-05T12:56:07.169Z,90
2019-02-05T12:57:16.932Z,105
2019-02-05T12:58:26.968Z,90
2019-02-05T12:59:36.963Z,75
2019-02-05T13:00:59.487Z,95
2019-02-05T13:02:11.780Z,130
2019-02-05T13:03:22.748Z,150
2019-02-05T13:04:32.932Z,165
2019-02-05T13:05:43.297Z,140
2019-02-05T13:06:53.618Z,90
2019-02-05T13:08:05.394Z,85
2019-02-05T13:09:15.629Z,90
2019-02-05T13:10:25.634Z,105
2019-02-05T13:11:35.378Z,125
2019-02-05T13:12:45.351Z,130
2019-02-05T13:13:55.085Z,145
2019-02-05T13:15:04.591Z,135
2019-02-05T13:16:14.388Z,125
2019-02-05T13:17:24.387Z,95
2019-02-05T13:18:34.147Z,90
2019-02-05T13:19:43.907Z,115
2019-02-05T13:20:53.435Z,105
2019-02-05T13:22:03.553Z,95
2019-02-05T13:23:13.314Z,90
2019-02-05T13:24:25.815Z,90
2019-02-05T13:25:35.338Z,70
2019-02-05T13:26:45.366Z,65
2019-02-05T13:27:55.146Z,70
2019-02-05T13:29:05.060Z,70
2019-02-05T13:30:14.854Z,75
2019-02-05T13:31:24.359Z,80
2019-02-05T13:32:34.330Z,85
2019-02-05T13:33:44.130Z,90
2019-02-05T13:34:53.975Z,90
2019-02-05T13:36:03.968Z,85
2019-02-05T13:37:13.964Z,105
2019-02-05T13:38:23.889Z,120
2019-02-05T13:39:33.880Z,110
2019-02-05T13:40:43.404Z,125
2019-02-05T13:41:52.900Z,130
2019-02-05T13:43:02.619Z,125
2019-02-05T13:44:12.376Z,145
2019-02-05T13:45:22.340Z,150
2019-02-05T13:46:32.070Z,140
2019-02-05T13:47:42.403Z,135
2019-02-05T13:48:52.159Z,120
2019-02-05T13:50:02.260Z,115
2019-02-05T13:51:12.236Z,120
2019-02-05T13:52:21.760Z,115
2019-02-05T13:53:31.794Z,110
2019-02-05T13:54:41.536Z,120
2019-02-05T13:55:51.305Z,130
2019-02-05T13:57:00.782Z,125
2019-02-05T13:58:10.564Z,110
2019-02-05T13:59:20.292Z,115
2019-02-05T14:00:30.054Z,120
2019-02-05T14:01:40.041Z,125
2019-02-05T14:02:50.005Z,120
2019-02-05T14:04:00.006Z,115
2019-02-05T14:05:10.022Z,110
2019-02-05T14:06:19.806Z,110
2019-02-05T14:07:29.540Z,105
2019-02-05T14:08:38.768Z,95
2019-02-05T14:09:48.753Z,95
2019-02-05T14:10:59.036Z,95
2019-02-05T14:12:09.387Z,95
2019-02-05T14:13:20.050Z,95
2019-02-05T14:14:30.989Z,100
2019-02-05T14:15:41.959Z,100
2019-02-05T14:16:52.564Z,100
2019-02-05T14:18:03.546Z,100
2019-02-05T14:19:13.445Z,100
2019-02-05T14:20:23.481Z,105
2019-02-05T14:21:33.770Z,105
2019-02-05T14:22:44.034Z,100
2019-02-05T14:23:53.819Z,95
2019-02-05T14:25:03.554Z,95
2019-02-05T14:26:12.795Z,105
2019-02-05T14:27:22.315Z,105
2019-02-05T14:28:32.339Z,105
2019-02-05T14:29:42.309Z,100
2019-02-05T14:30:52.059Z,100
2019-02-05T14:32:02.043Z,95
2019-02-05T14:33:11.802Z,90
2019-02-05T14:34:21.645Z,95
2019-02-05T14:35:31.422Z,90
2019-02-05T14:36:41.220Z,90
2019-02-05T14:37:51.225Z,90
2019-02-05T14:39:00.982Z,85
2019-02-05T14:40:10.716Z,85
2019-02-05T14:41:20.238Z,85
2019-02-05T14:42:29.960Z,85
2019-02-05T14:43:39.686Z,80
2019-02-05T14:44:49.426Z,75
2019-02-05T14:45:59.157Z,70
2019-02-05T14:47:09.164Z,70
2019-02-05T14:48:18.654Z,70
2019-02-05T14:49:28.157Z,80
2019-02-05T14:50:37.182Z,85
2019-02-05T14:51:46.937Z,80
2019-02-05T14:52:56.682Z,70
2019-02-05T14:54:06.727Z,60
2019-02-05T14:55:16.498Z,60
2019-02-05T14:56:26.487Z,65
2019-02-05T14:57:36.505Z,65
2019-02-05T14:58:46.215Z,65
2019-02-05T14:59:56.204Z,60
2019-02-05T15:01:06.202Z,60
2019-02-05T15:02:16.308Z,60
2019-02-05T15:03:26.053Z,55
2019-02-05T15:04:35.948Z,65
2019-02-05T15:05:45.171Z,70
2019-02-05T15:06:55.164Z,70
2019-02-05T15:08:08.317Z,70
2019-02-05T15:09:18.139Z,65
2019-02-05T15:10:27.859Z,65
2019-02-05T15:11:37.364Z,60
2019-02-05T15:12:47.125Z,60
2019-02-05T15:13:56.616Z,55
2019-02-05T15:15:06.585Z,55
2019-02-05T15:16:16.294Z,55
2019-02-05T15:17:26.052Z,55
2019-02-05T15:18:35.277Z,50
2019-02-05T15:19:44.751Z,50
2019-02-05T15:20:54.261Z,50
2019-02-05T15:22:03.971Z,50
2019-02-05T15:23:13.690Z,50
2019-02-05T15:24:23.182Z,45
2019-02-05T15:25:32.946Z,45
2019-02-05T15:26:42.681Z,45
2019-02-05T15:27:52.686Z,45
2019-02-05T15:29:02.687Z,45
2019-02-05T15:30:12.453Z,40
2019-02-05T15:31:22.208Z,40
2019-02-05T15:32:31.462Z,40
2019-02-05T15:33:41.258Z,40
2019-02-05T15:34:51.935Z,40
2019-02-05T15:36:01.583Z,40
2019-02-05T15:37:12.057Z,35
2019-02-05T15:38:22.900Z,30
2019-02-05T15:39:33.180Z,30
2019-02-05T15:40:44.087Z,25
2019-02-05T15:41:54.612Z,25
2019-02-05T15:43:04.394Z,25
2019-02-05T15:44:14.545Z,20
2019-02-05T15:45:24.284Z,20
2019-02-05T15:46:34.021Z,15
2019-02-05T15:47:43.778Z,15
2019-02-05T15:48:53.510Z,15
2019-02-05T15:50:13.057Z,15
2019-02-05T15:51:22.546Z,15
2019-02-05T15:52:32.587Z,15
2019-02-05T15:53:42.285Z,15
2019-02-05T15:54:51.778Z,15
2019-02-05T15:56:01.313Z,15
2019-02-05T15:57:11.078Z,15
2019-02-05T15:58:20.884Z,15
2019-02-05T15:59:30.503Z,15
2019-02-05T16:00:42.039Z,15
2019-02-05T16:01:51.639Z,10
2019-02-05T16:03:01.415Z,10
2019-02-05T16:04:10.506Z,10
2019-02-05T16:05:20.536Z,10
2019-02-05T16:06:30.284Z,10
2019-02-05T16:07:40.303Z,10
2019-02-05T16:08:50.334Z,10
2019-02-05T16:10:00.135Z,10
2019-02-05T16:11:10.179Z,10
2019-02-05T16:12:19.686Z,10
2019-02-05T16:13:29.549Z,5
2019-02-05T16:14:39.044Z,5
2019-02-05T16:15:49.029Z,5
2019-02-05T16:16:58.284Z,5
2019-02-05T16:18:08.055Z,5
2019-02-05T16:19:18.040Z,5
2019-02-05T16:20:27.545Z,5
2019-02-05T16:21:37.062Z,0
2019-02-05T16:22:46.551Z,0
2019-02-05T16:23:58.090Z,0
2019-02-05T16:25:08.064Z,0
2019-02-05T16:26:17.794Z,0
2019-02-05T16:27:27.575Z,0
2019-02-05T16:28:37.604Z,0
2019-02-05T16:29:47.317Z,0
2019-02-05T16:30:57.097Z,0
2019-02-05T16:32:17.013Z,0
2019-02-05T16:33:26.852Z,0
2019-02-05T16:34:36.348Z,0
2019-02-05T16:35:46.283Z,0
2019-02-05T16:36:58.700Z,0
2019-02-05T16:38:09.053Z,0
2019-02-05T16:39:19.980Z,0
2019-02-05T16:40:30.606Z,0
2019-02-05T16:41:41.189Z,0
2019-02-05T16:42:51.443Z,0
2019-02-05T16:44:01.531Z,0
2019-02-05T16:45:11.814Z,0
2019-02-05T16:46:21.657Z,0
2019-02-05T16:47:31.660Z,0
2019-02-05T16:48:41.397Z,0
2019-02-05T16:49:50.913Z,0
2019-02-05T16:51:00.941Z,0
2019-02-05T16:52:10.930Z,0